createdAt,value
2018-12-17T00:01:52.555Z,45.13
2018-12-17T00:03:53.630Z,40.93
2018-12-17T00:05:54.799Z,42.53
2018-12-17T00:07:55.967Z,40.60
2018-12-17T00:09:57.005Z,41.63
2018-12-17T00:11:58.062Z,39.37
2018-12-17T00:13:59.277Z,48.37
2018-12-17T00:16:00.371Z,41.53
2018-12-17T00:18:01.459Z,51.93
2018-12-17T00:20:02.517Z,48.10
2018-12-17T00:22:03.561Z,41.00
2018-12-17T00:24:04.608Z,47.87
2018-12-17T00:26:05.755Z,44.63
2018-12-17T00:28:08.258Z,46.17
2018-12-17T00:30:09.544Z,50.87
2018-12-17T00:32:10.675Z,47.40
2018-12-17T00:34:11.703Z,43.20
2018-12-17T00:36:12.738Z,43.80
2018-12-17T00:38:13.948Z,50.67
2018-12-17T00:40:15.187Z,50.83
2018-12-17T00:42:16.251Z,50.23
2018-12-17T00:44:17.270Z,43.57
2018-12-17T00:46:18.287Z,46.60
2018-12-17T00:48:19.531Z,40.50
2018-12-17T00:50:20.648Z,44.80
2018-12-17T00:52:21.659Z,45.87
2018-12-17T00:54:22.674Z,41.60
2018-12-17T00:56:23.705Z,47.07
2018-12-17T00:58:24.613Z,47.97
2018-12-17T01:00:25.648Z,46.07
2018-12-17T01:02:26.707Z,44.77
2018-12-17T01:04:27.810Z,50.07
2018-12-17T01:06:28.942Z,46.93
2018-12-17T01:08:29.951Z,46.23
2018-12-17T01:10:30.982Z,44.63
2018-12-17T01:12:32.016Z,39.87
2018-12-17T01:14:33.035Z,42.20
2018-12-17T01:16:34.069Z,39.83
2018-12-17T01:18:35.106Z,46.47
2018-12-17T01:20:36.239Z,43.53
2018-12-17T01:22:37.255Z,41.53
2018-12-17T01:24:38.279Z,38.40
2018-12-17T01:26:39.309Z,41.20
2018-12-17T01:28:40.547Z,41.03
2018-12-17T01:30:41.570Z,44.53
2018-12-17T01:32:42.731Z,37.50
2018-12-17T01:34:43.752Z,43.83
2018-12-17T01:36:44.883Z,42.50
2018-12-17T01:38:45.899Z,38.07
2018-12-17T01:40:46.919Z,43.80
2018-12-17T01:42:47.971Z,44.77
2018-12-17T01:44:48.983Z,38.23
2018-12-17T01:46:49.994Z,48.90
2018-12-17T01:48:51.131Z,44.17
2018-12-17T01:50:52.155Z,41.93
2018-12-17T01:52:53.166Z,41.07
2018-12-17T01:54:54.207Z,39.80
2018-12-17T01:56:55.239Z,34.80
2018-12-17T01:58:56.298Z,37.63
2018-12-17T02:00:57.331Z,38.93
2018-12-17T02:02:58.342Z,36.40
2018-12-17T02:04:59.367Z,36.77
2018-12-17T02:07:00.459Z,36.40
2018-12-17T02:09:01.503Z,35.13
2018-12-17T02:11:02.535Z,36.00
2018-12-17T02:13:03.556Z,36.47
2018-12-17T02:15:04.583Z,40.23
2018-12-17T02:17:05.599Z,37.07
2018-12-17T02:19:06.623Z,35.07
2018-12-17T02:21:07.640Z,36.83
2018-12-17T02:23:08.659Z,39.23
2018-12-17T02:25:09.681Z,37.07
2018-12-17T02:27:10.715Z,36.50
2018-12-17T02:29:11.726Z,36.47
2018-12-17T02:31:12.775Z,36.87
2018-12-17T02:33:13.787Z,36.83
2018-12-17T02:35:14.802Z,36.50
2018-12-17T02:37:15.823Z,40.37
2018-12-17T02:39:16.890Z,38.23
2018-12-17T02:41:17.919Z,42.13
2018-12-17T02:43:19.148Z,38.47
2018-12-17T02:45:20.190Z,43.93
2018-12-17T02:47:21.234Z,42.03
2018-12-17T02:49:22.488Z,41.47
2018-12-17T02:51:23.505Z,41.80
2018-12-17T02:53:24.537Z,41.50
2018-12-17T02:55:25.567Z,43.00
2018-12-17T02:57:26.596Z,41.30
2018-12-17T02:59:27.638Z,43.67
2018-12-17T03:01:28.654Z,41.33
2018-12-17T03:03:29.687Z,45.63
2018-12-17T03:05:30.707Z,40.87
2018-12-17T03:07:31.723Z,46.63
2018-12-17T03:09:32.774Z,40.60
2018-12-17T03:11:33.787Z,43.10
2018-12-17T03:13:34.803Z,43.17
2018-12-17T03:15:35.890Z,41.33
2018-12-17T03:17:36.913Z,43.60
2018-12-17T03:19:37.933Z,47.60
2018-12-17T03:21:39.066Z,43.90
2018-12-17T03:23:40.111Z,48.13
2018-12-17T03:25:41.147Z,49.00
2018-12-17T03:27:42.180Z,42.73
2018-12-17T03:29:43.300Z,49.93
2018-12-17T03:31:44.555Z,43.33
2018-12-17T03:33:45.667Z,45.43
2018-12-17T03:35:46.704Z,47.57
2018-12-17T03:37:47.726Z,46.50
2018-12-17T03:39:48.760Z,41.13
2018-12-17T03:41:49.795Z,44.73
2018-12-17T03:43:50.807Z,46.53
2018-12-17T03:45:51.931Z,45.33
2018-12-17T03:47:52.963Z,42.67
2018-12-17T03:49:54.011Z,45.20
2018-12-17T03:51:55.027Z,49.50
2018-12-17T03:53:56.046Z,43.73
2018-12-17T03:55:57.070Z,40.00
2018-12-17T03:57:58.091Z,41.83
2018-12-17T03:59:59.237Z,44.03
2018-12-17T04:02:00.251Z,43.70
2018-12-17T04:04:01.274Z,44.93
2018-12-17T04:06:02.306Z,46.63
2018-12-17T04:08:03.437Z,43.17
2018-12-17T04:10:04.479Z,43.90
2018-12-17T04:12:05.530Z,45.47
2018-12-17T04:14:06.548Z,44.50
2018-12-17T04:16:07.719Z,43.93
2018-12-17T04:18:08.731Z,44.70
2018-12-17T04:20:09.752Z,39.00
2018-12-17T04:22:10.788Z,43.23
2018-12-17T04:24:11.823Z,39.40
2018-12-17T04:26:12.947Z,41.63
2018-12-17T04:28:14.015Z,43.33
2018-12-17T04:30:15.152Z,39.43
2018-12-17T04:32:16.170Z,39.87
2018-12-17T04:34:17.303Z,43.93
2018-12-17T04:36:18.335Z,40.00
2018-12-17T04:38:19.351Z,39.53
2018-12-17T04:40:20.384Z,38.03
2018-12-17T04:42:21.405Z,39.53
2018-12-17T04:44:22.544Z,38.20
2018-12-17T04:46:23.575Z,43.00
2018-12-17T04:48:24.615Z,41.33
2018-12-17T04:50:25.630Z,37.77
2018-12-17T04:52:26.663Z,39.80
2018-12-17T04:54:27.912Z,45.03
2018-12-17T04:56:28.932Z,43.47
2018-12-17T04:58:30.090Z,41.90
2018-12-17T05:00:31.214Z,41.57
2018-12-17T05:02:32.235Z,42.93
2018-12-17T05:04:33.267Z,45.47
2018-12-17T05:06:34.288Z,42.13
2018-12-17T05:08:35.305Z,40.87
2018-12-17T05:10:36.341Z,42.17
2018-12-17T05:12:37.463Z,40.80
2018-12-17T05:14:38.507Z,44.37
2018-12-17T05:16:39.624Z,39.73
2018-12-17T05:18:40.652Z,42.83
2018-12-17T05:20:41.675Z,41.73
2018-12-17T05:22:42.691Z,43.97
2018-12-17T05:24:43.747Z,41.00
2018-12-17T05:26:44.763Z,46.80
2018-12-17T05:28:45.780Z,39.37
2018-12-17T05:30:46.808Z,38.30
2018-12-17T05:32:47.830Z,45.73
2018-12-17T05:34:48.947Z,43.77
2018-12-17T05:36:49.975Z,40.90
2018-12-17T05:38:51.099Z,37.70
2018-12-17T05:40:52.451Z,41.17
2018-12-17T05:42:53.476Z,39.07
2018-12-17T05:44:54.499Z,37.27
2018-12-17T05:46:55.626Z,36.43
2018-12-17T05:48:56.756Z,36.57
2018-12-17T05:50:57.795Z,41.90
2018-12-17T05:52:58.811Z,36.03
2018-12-17T05:54:59.833Z,38.70
2018-12-17T05:57:00.867Z,39.43
2018-12-17T05:59:01.875Z,42.97
2018-12-17T06:01:02.967Z,41.83
2018-12-17T06:03:04.039Z,43.37
2018-12-17T06:05:05.057Z,41.07
2018-12-17T06:07:06.191Z,38.63
2018-12-17T06:09:09.446Z,36.47
2018-12-17T06:11:10.464Z,41.53
2018-12-17T06:13:11.603Z,38.07
2018-12-17T06:15:12.620Z,43.50
2018-12-17T06:17:13.634Z,39.57
2018-12-17T06:19:14.675Z,38.60
2018-12-17T06:21:15.694Z,41.80
2018-12-17T06:23:16.816Z,39.00
2018-12-17T06:25:17.848Z,38.93
2018-12-17T06:27:18.996Z,38.20
2018-12-17T06:29:20.123Z,38.67
2018-12-17T06:31:21.135Z,39.40
2018-12-17T06:33:22.173Z,37.53
2018-12-17T06:35:23.291Z,40.53
2018-12-17T06:37:24.235Z,43.83
2018-12-17T06:39:25.251Z,44.73
2018-12-17T06:41:26.267Z,41.17
2018-12-17T06:43:27.411Z,39.03
2018-12-17T06:45:28.431Z,41.20
2018-12-17T06:47:29.447Z,39.07
2018-12-17T06:49:30.505Z,41.60
2018-12-17T06:51:31.851Z,41.27
2018-12-17T06:53:32.891Z,37.77
2018-12-17T06:55:34.033Z,37.63
2018-12-17T06:57:35.046Z,39.07
2018-12-17T06:59:42.478Z,40.17
2018-12-17T07:01:39.123Z,41.80
2018-12-17T07:03:40.163Z,40.93
2018-12-17T07:05:41.203Z,38.83
2018-12-17T07:07:42.219Z,39.47
2018-12-17T07:09:43.251Z,37.87
2018-12-17T07:11:44.269Z,38.43
2018-12-17T07:13:45.299Z,45.43
2018-12-17T07:15:46.327Z,42.10
2018-12-17T07:17:47.367Z,41.13
2018-12-17T07:19:48.492Z,43.40
2018-12-17T07:21:49.542Z,41.80
2018-12-17T07:23:50.555Z,42.37
2018-12-17T07:25:51.571Z,39.23
2018-12-17T07:27:52.618Z,40.17
2018-12-17T07:29:53.756Z,40.10
2018-12-17T07:31:54.775Z,38.20
2018-12-17T07:33:55.806Z,38.03
2018-12-17T07:35:56.823Z,38.80
2018-12-17T07:37:57.873Z,35.03
2018-12-17T07:39:59.296Z,36.93
2018-12-17T07:42:00.438Z,36.80
2018-12-17T07:44:01.591Z,37.30
2018-12-17T07:46:02.619Z,39.33
2018-12-17T07:48:03.632Z,35.67
2018-12-17T07:50:04.756Z,35.57
2018-12-17T07:52:05.786Z,37.73
2018-12-17T07:54:06.818Z,36.70
2018-12-17T07:56:07.863Z,38.10
2018-12-17T07:58:08.883Z,42.63
2018-12-17T08:00:10.433Z,38.90
2018-12-17T08:02:11.475Z,37.67
2018-12-17T08:04:12.490Z,39.77
2018-12-17T08:06:13.504Z,37.53
2018-12-17T08:08:14.526Z,37.17
2018-12-17T08:10:15.642Z,43.67
2018-12-17T08:12:16.678Z,39.17
2018-12-17T08:14:17.803Z,41.50
2018-12-17T08:16:18.818Z,33.40
2018-12-17T08:18:19.846Z,38.40
2018-12-17T08:20:20.967Z,36.20
2018-12-17T08:22:22.351Z,30.83
2018-12-17T08:24:23.471Z,33.83
2018-12-17T08:26:24.535Z,33.30
2018-12-17T08:28:25.548Z,35.40
2018-12-17T08:30:26.598Z,32.47
2018-12-17T08:32:27.611Z,31.27
2018-12-17T08:34:28.647Z,34.30
2018-12-17T08:36:29.670Z,33.43
2018-12-17T08:38:30.791Z,30.80
2018-12-17T08:40:31.838Z,35.60
2018-12-17T08:42:32.863Z,35.33
2018-12-17T08:44:33.994Z,35.10
2018-12-17T08:46:35.168Z,39.40
2018-12-17T08:48:36.194Z,38.80
2018-12-17T08:50:37.211Z,40.50
2018-12-17T08:52:38.242Z,38.13
2018-12-17T08:54:39.275Z,35.37
2018-12-17T08:56:40.307Z,34.33
2018-12-17T08:58:41.331Z,37.93
2018-12-17T09:00:42.371Z,34.90
2018-12-17T09:02:43.403Z,37.13
2018-12-17T09:04:44.462Z,36.10
2018-12-17T09:06:45.479Z,36.37
2018-12-17T09:08:46.495Z,37.70
2018-12-17T09:10:47.724Z,46.07
2018-12-17T09:12:48.858Z,38.60
2018-12-17T09:14:49.891Z,37.73
2018-12-17T09:16:50.906Z,36.20
2018-12-17T09:18:51.924Z,38.93
2018-12-17T09:20:52.954Z,34.33
2018-12-17T09:22:53.966Z,32.40
2018-12-17T09:24:54.987Z,29.43
2018-12-17T09:26:56.111Z,32.33
2018-12-17T09:28:57.147Z,32.90
2018-12-17T09:30:58.163Z,31.27
2018-12-17T09:32:59.214Z,30.77
2018-12-17T09:35:00.339Z,28.00
2018-12-17T09:37:01.355Z,27.20
2018-12-17T09:39:02.639Z,28.50
2018-12-17T09:41:03.663Z,29.43
2018-12-17T09:43:04.834Z,27.27
2018-12-17T09:45:05.870Z,27.43
2018-12-17T09:47:06.995Z,26.57
2018-12-17T09:49:08.151Z,26.80
2018-12-17T09:51:09.179Z,27.27
2018-12-17T09:53:10.218Z,27.43
2018-12-17T09:55:11.236Z,26.57
2018-12-17T09:57:12.258Z,26.33
2018-12-17T09:59:13.288Z,23.70
2018-12-17T10:01:14.307Z,25.80
2018-12-17T10:03:15.338Z,27.67
2018-12-17T10:05:16.356Z,27.47
2018-12-17T10:07:17.370Z,26.13
2018-12-17T10:09:18.415Z,26.43
2018-12-17T10:11:19.431Z,25.30
2018-12-17T10:13:20.451Z,23.33
2018-12-17T10:15:21.490Z,26.50
2018-12-17T10:17:22.631Z,26.40
2018-12-17T10:19:23.667Z,26.27
2018-12-17T10:21:24.683Z,27.23
2018-12-17T10:23:25.616Z,26.30
2018-12-17T10:25:26.630Z,27.40
2018-12-17T10:27:27.659Z,25.80
2018-12-17T10:29:28.692Z,27.60
2018-12-17T10:31:29.707Z,26.40
2018-12-17T10:33:30.731Z,25.60
2018-12-17T10:35:31.756Z,26.23
2018-12-17T10:37:32.772Z,26.00
2018-12-17T10:39:33.800Z,24.70
2018-12-17T10:41:34.827Z,26.63
2018-12-17T10:43:35.843Z,26.10
2018-12-17T10:45:36.876Z,21.30
2018-12-17T10:47:38.003Z,24.20
2018-12-17T10:49:39.054Z,26.03
2018-12-17T10:51:40.181Z,23.90
2018-12-17T10:53:41.323Z,23.73
2018-12-17T10:55:42.371Z,21.83
2018-12-17T10:57:43.519Z,20.83
2018-12-17T10:59:44.451Z,18.73
2018-12-17T11:01:50.064Z,20.83
2018-12-17T11:03:53.779Z,20.60
2018-12-17T11:05:55.155Z,18.53
2018-12-17T20:49:48.247Z,20.67
2018-12-17T20:51:49.276Z,17.43
2018-12-17T20:53:50.331Z,16.97
2018-12-17T20:55:51.421Z,16.67
2018-12-17T20:57:52.471Z,18.97
2018-12-17T20:59:53.599Z,14.87
2018-12-17T21:01:54.658Z,15.63
2018-12-17T21:03:55.804Z,14.27
2018-12-17T21:05:56.843Z,15.13
2018-12-17T21:07:57.985Z,13.23
2018-12-17T21:09:59.123Z,13.47
2018-12-17T21:12:00.230Z,15.27
2018-12-17T21:14:01.388Z,13.97
2018-12-17T21:16:02.316Z,15.43
2018-12-17T21:18:03.399Z,14.73
2018-12-17T21:20:04.333Z,13.90
2018-12-17T21:22:05.426Z,15.47
2018-12-17T21:24:06.471Z,14.90
2018-12-17T21:26:07.499Z,15.73
2018-12-17T21:28:08.554Z,15.93
2018-12-17T21:30:09.601Z,16.43
2018-12-17T21:32:10.746Z,15.03
2018-12-17T21:34:11.871Z,13.77
2018-12-17T21:36:12.909Z,14.80
2018-12-17T21:38:13.958Z,15.10
2018-12-17T21:40:15.087Z,14.40
2018-12-17T21:42:16.255Z,13.80
2018-12-17T21:44:17.260Z,17.10
2018-12-17T21:46:18.309Z,14.13
2018-12-17T21:48:19.367Z,14.30
2018-12-17T21:50:20.471Z,13.67
2018-12-17T21:52:21.527Z,14.97
2018-12-17T21:54:22.659Z,12.33
2018-12-17T21:56:23.683Z,14.17
2018-12-17T21:58:24.711Z,14.27
2018-12-17T22:00:25.763Z,14.23
2018-12-17T22:02:26.919Z,15.47
2018-12-17T22:04:28.034Z,13.73
2018-12-17T22:06:29.156Z,12.83
2018-12-17T22:08:30.240Z,15.30
2018-12-17T22:10:34.651Z,14.63
2018-12-17T22:12:35.675Z,15.47
2018-12-17T22:14:36.823Z,15.50
2018-12-17T22:16:37.847Z,16.10
2018-12-17T22:18:38.863Z,14.00
2018-12-17T22:20:39.891Z,16.13
2018-12-17T22:22:40.904Z,18.00
2018-12-17T22:24:41.940Z,13.60
2018-12-17T22:26:42.958Z,17.37
2018-12-17T22:28:43.867Z,14.80
2018-12-17T22:30:44.886Z,16.90
2018-12-17T22:32:45.907Z,14.03
2018-12-17T22:34:46.915Z,20.10
2018-12-17T22:36:47.919Z,17.60
2018-12-17T22:38:48.960Z,16.23
2018-12-17T22:40:50.096Z,15.57
2018-12-17T22:42:51.243Z,15.17
2018-12-17T22:44:52.255Z,15.83
2018-12-17T22:46:53.379Z,15.40
2018-12-17T22:48:54.411Z,17.67
2018-12-17T22:50:55.335Z,16.37
2018-12-17T22:52:56.344Z,15.93
2018-12-17T22:54:57.381Z,17.80
2018-12-17T22:56:58.399Z,16.67
2018-12-17T22:58:59.415Z,16.07
2018-12-17T23:01:00.344Z,17.57
2018-12-17T23:03:01.360Z,16.83
2018-12-17T23:05:02.401Z,16.17
2018-12-17T23:07:03.427Z,15.70
2018-12-17T23:09:07.016Z,15.43
2018-12-17T23:11:08.156Z,15.73
2018-12-17T23:13:09.174Z,15.77
2018-12-17T23:15:10.251Z,16.33
2018-12-17T23:17:11.283Z,14.43
2018-12-17T23:19:12.831Z,13.03
2018-12-17T23:21:13.844Z,12.97
2018-12-17T23:23:14.867Z,13.97
2018-12-17T23:25:15.878Z,15.13
2018-12-17T23:27:16.907Z,14.80
2018-12-17T23:29:18.043Z,13.47
2018-12-17T23:31:19.058Z,16.23
2018-12-17T23:33:19.996Z,15.33
2018-12-17T23:35:21.007Z,15.83
2018-12-17T23:37:22.127Z,14.87
2018-12-17T23:39:23.151Z,14.00
2018-12-17T23:41:24.170Z,14.23
2018-12-17T23:43:25.308Z,13.63
2018-12-17T23:45:26.336Z,14.40
2018-12-17T23:47:27.483Z,14.10
2018-12-17T23:49:28.508Z,12.67
2018-12-17T23:51:29.535Z,12.63
2018-12-17T23:53:30.607Z,13.40
2018-12-17T23:55:31.691Z,13.80
2018-12-17T23:57:32.715Z,15.30
2018-12-17T23:59:33.719Z,16.07
